Time;durP1;ratioP1;P1;durP2;ratioP2;P2;SDS_P1;SDS_P2;PMS_P1;PMS_P2;Temp;Humidity;BMP_temperature;BMP_pressure;BME280_temperature;BME280_humidity;BME280_pressure;Samples;Min_cycle;Max_cycle;Signal;HPM_P1;HPM_P2
2021/08/24 00:02:16;;;;;;;12.00;6.15;;;16.90;66.80;;;;;;6251283;23;20057;-74
2021/08/24 00:04:42;;;;;;;10.82;6.15;;;16.90;65.90;;;;;;6251316;23;20000;-74
2021/08/24 00:07:08;;;;;;;12.05;5.65;;;16.90;65.50;;;;;;6224032;23;20042;-74
2021/08/24 00:09:35;;;;;;;12.95;6.22;;;16.80;65.10;;;;;;6251184;23;20006;-73
2021/08/24 00:12:01;;;;;;;11.40;5.82;;;16.80;64.90;;;;;;6251218;23;20024;-74
2021/08/24 00:14:27;;;;;;;9.68;5.65;;;16.80;64.90;;;;;;6251329;23;19996;-74
2021/08/24 00:16:53;;;;;;;11.65;5.88;;;16.80;66.70;;;;;;6224062;23;20501;-74
2021/08/24 00:19:19;;;;;;;13.10;6.97;;;16.80;66.90;;;;;;6251273;23;20000;-74
2021/08/24 00:21:45;;;;;;;11.93;6.20;;;16.70;66.60;;;;;;6250930;23;20082;-74
2021/08/24 00:24:12;;;;;;;10.15;5.82;;;16.70;66.60;;;;;;6250971;23;20012;-74
2021/08/24 00:26:38;;;;;;;10.85;6.05;;;16.70;66.10;;;;;;6251072;23;20000;-74
2021/08/24 00:29:04;;;;;;;11.23;5.93;;;16.70;66.00;;;;;;6251166;23;20000;-74
2021/08/24 00:31:31;;;;;;;9.13;5.65;;;16.60;65.60;;;;;;6251077;23;20004;-73
2021/08/24 00:33:57;;;;;;;10.75;6.10;;;16.60;65.40;;;;;;6251136;23;20006;-74
2021/08/24 00:36:23;;;;;;;12.85;5.65;;;16.60;65.40;;;;;;6223680;23;20083;-75
2021/08/24 00:38:50;;;;;;;10.93;6.00;;;16.50;65.40;;;;;;6250723;23;20002;-74
2021/08/24 00:41:17;;;;;;;12.20;5.68;;;16.50;65.20;;;;;;6251065;23;20011;-74
2021/08/24 00:43:46;;;;;;;11.55;6.00;;;16.50;65.20;;;;;;6250924;23;19996;-74
2021/08/24 00:46:33;;;;;;;9.27;5.72;;;16.50;65.20;;;;;;6250884;23;20008;-74
2021/08/24 00:49:04;;;;;;;8.23;5.30;;;16.50;65.40;;;;;;6250788;23;20006;-75
2021/08/24 00:51:34;;;;;;;13.65;5.85;;;16.40;65.30;;;;;;6223771;23;20004;-74
2021/08/24 00:54:00;;;;;;;13.75;6.22;;;16.40;65.40;;;;;;6250858;23;20000;-74
2021/08/24 00:56:28;;;;;;;9.35;5.15;;;16.40;65.20;;;;;;6250899;23;20450;-74
2021/08/24 00:58:56;;;;;;;13.77;6.93;;;16.40;65.30;;;;;;6250964;23;20078;-74
2021/08/24 01:01:21;;;;;;;14.07;6.22;;;16.30;65.80;;;;;;6250857;23;20080;-74
2021/08/24 01:03:49;;;;;;;15.32;5.78;;;16.30;65.80;;;;;;6250899;23;19996;-74
2021/08/24 01:06:45;;;;;;;9.68;5.80;;;16.30;65.50;;;;;;6223669;23;20019;-74
2021/08/24 01:09:19;;;;;;;14.18;6.00;;;16.30;65.40;;;;;;6250950;23;20004;-74
2021/08/24 01:12:15;;;;;;;9.75;5.68;;;16.20;65.30;;;;;;6250926;23;20000;-74
2021/08/24 01:15:07;;;;;;;10.07;5.68;;;16.20;65.60;;;;;;6250918;23;20004;-74
2021/08/24 01:17:48;;;;;;;13.95;6.30;;;16.20;65.40;;;;;;6250826;23;20068;-74
2021/08/24 01:20:26;;;;;;;9.48;5.38;;;16.20;65.60;;;;;;6250852;23;20327;-74
2021/08/24 01:23:03;;;;;;;11.07;6.80;;;16.20;65.20;;;;;;6250443;23;20335;-74
2021/08/24 01:25:42;;;;;;;14.63;5.45;;;16.20;65.30;;;;;;6250975;23;20087;-74
2021/08/24 01:28:45;;;;;;;12.43;6.00;;;16.10;65.20;;;;;;6250744;23;20000;-74
2021/08/24 01:31:30;;;;;;;;;;;16.10;65.90;;;;;;6251269;23;20032;-74
2021/08/24 01:34:14;;;;;;;14.32;7.18;;;16.10;68.20;;;;;;6223950;23;20243;-74
2021/08/24 01:37:19;;;;;;;14.68;7.15;;;16.10;70.00;;;;;;6250541;23;20004;-74
2021/08/24 01:39:54;;;;;;;13.13;6.72;;;16.10;69.70;;;;;;6098966;23;20025;-74
2021/08/24 01:42:27;;;;;;;14.73;7.53;;;16.00;70.10;;;;;;6232848;23;20006;-74
2021/08/24 01:44:52;;;;;;;14.05;7.32;;;16.00;71.50;;;;;;6250800;23;20003;-74
2021/08/24 01:47:44;;;;;;;16.60;7.75;;;16.00;71.40;;;;;;6250573;23;20440;-74
2021/08/24 01:50:44;;;;;;;17.33;8.57;;;16.00;72.10;;;;;;6250614;23;20023;-74
2021/08/24 01:53:45;;;;;;;19.65;9.07;;;15.90;73.80;;;;;;6239028;23;20434;-74
2021/08/24 01:56:23;;;;;;;17.10;9.13;;;15.90;76.30;;;;;;6251640;23;20000;-74
2021/08/24 01:58:59;;;;;;;19.98;8.98;;;15.90;75.10;;;;;;6252532;23;20004;-73
2021/08/24 02:01:33;;;;;;;14.80;8.57;;;15.80;76.80;;;;;;6252360;23;20000;-74
2021/08/24 02:04:00;;;;;;;18.98;10.07;;;15.70;76.00;;;;;;6252560;23;20075;-74
2021/08/24 02:06:44;;;;;;;21.60;9.20;;;15.70;77.80;;;;;;6252207;23;20018;-74
2021/08/24 02:09:20;;;;;;;16.92;8.35;;;15.60;77.60;;;;;;6252316;23;20000;-74
2021/08/24 02:11:47;;;;;;;16.60;8.70;;;15.70;75.10;;;;;;6252461;23;20000;-74
2021/08/24 02:14:15;;;;;;;12.77;7.40;;;15.60;74.90;;;;;;6252463;23;20005;-74
2021/08/24 02:16:44;;;;;;;15.80;8.43;;;15.60;74.30;;;;;;6252201;23;20016;-74
2021/08/24 02:19:23;;;;;;;19.23;9.77;;;15.60;75.50;;;;;;6252569;23;20004;-74
2021/08/24 02:21:59;;;;;;;15.88;8.88;;;15.50;76.50;;;;;;6252114;23;20004;-74
2021/08/24 02:24:41;;;;;;;20.27;8.43;;;15.60;75.00;;;;;;6225235;23;20040;-74
2021/08/24 02:27:11;;;;;;;20.63;9.10;;;15.60;75.20;;;;;;6252301;23;20012;-74
2021/08/24 02:29:38;;;;;;;15.88;8.55;;;15.50;76.30;;;;;;6252150;23;20004;-74
2021/08/24 02:32:11;;;;;;;18.52;8.95;;;15.50;75.90;;;;;;6252148;23;20003;-74
2021/08/24 02:35:22;;;;;;;21.10;9.32;;;15.40;77.90;;;;;;6252273;23;20028;-74
2021/08/24 02:37:51;;;;;;;16.42;8.98;;;15.40;76.40;;;;;;6184561;23;20083;-74
2021/08/24 02:40:24;;;;;;;18.00;8.57;;;15.40;77.40;;;;;;6251900;23;20020;-74
2021/08/24 02:43:08;;;;;;;20.98;9.95;;;15.40;75.70;;;;;;6252074;23;20074;-74
2021/08/24 02:45:40;;;;;;;17.42;9.02;;;15.30;77.60;;;;;;6252152;23;20004;-74
2021/08/24 02:48:11;;;;;;;19.50;9.05;;;15.40;75.90;;;;;;6251918;23;20087;-74
2021/08/24 02:50:41;;;;;;;16.80;7.63;;;15.30;76.90;;;;;;6251644;23;20008;-74
2021/08/24 02:53:09;;;;;;;15.85;8.18;;;15.30;74.90;;;;;;6251888;23;20004;-74
2021/08/24 02:55:35;;;;;;;16.35;8.57;;;15.30;75.10;;;;;;6252025;23;20003;-74
2021/08/24 02:58:01;;;;;;;13.23;7.20;;;15.30;73.40;;;;;;6251898;23;20052;-74
2021/08/24 03:00:27;;;;;;;17.75;8.40;;;15.30;73.30;;;;;;6251920;23;20382;-74
2021/08/24 03:02:53;;;;;;;14.32;7.75;;;15.20;72.60;;;;;;6251944;23;20008;-74
2021/08/24 03:05:19;;;;;;;12.10;7.22;;;15.30;72.50;;;;;;6251929;23;20336;-74
2021/08/24 03:07:46;;;;;;;13.35;6.93;;;15.20;72.60;;;;;;6250883;23;20501;-75
2021/08/24 03:10:16;;;;;;;15.57;7.35;;;15.20;71.80;;;;;;6251718;23;20058;-74
2021/08/24 03:13:02;;;;;;;11.13;6.75;;;15.20;72.40;;;;;;6224837;23;20375;-75
2021/08/24 03:15:43;;;;;;;21.75;8.77;;;15.10;71.30;;;;;;6224678;23;20004;-74
2021/08/24 03:18:26;;;;;;;15.75;8.25;;;15.20;75.10;;;;;;6224698;23;20000;-74
2021/08/24 03:20:56;;;;;;;21.55;8.57;;;15.20;72.70;;;;;;6251464;23;20320;-74
2021/08/24 03:23:24;;;;;;;18.00;9.45;;;15.10;73.70;;;;;;6224443;23;20004;-74
2021/08/24 03:25:52;;;;;;;14.77;8.40;;;15.10;75.00;;;;;;6251616;23;20008;-74
2021/08/24 03:28:21;;;;;;;18.80;9.48;;;15.10;74.00;;;;;;6251699;23;20004;-74
2021/08/24 03:30:48;;;;;;;16.08;8.18;;;15.10;75.30;;;;;;6224474;23;20057;-74
2021/08/24 03:33:14;;;;;;;14.60;8.00;;;15.10;74.90;;;;;;6251598;23;20070;-74
2021/08/24 03:35:41;;;;;;;20.10;8.68;;;15.00;74.60;;;;;;6251230;23;20007;-74
2021/08/24 03:38:07;;;;;;;21.75;9.55;;;15.00;76.90;;;;;;6251307;23;19997;-74
2021/08/24 03:40:34;;;;;;;18.10;9.50;;;15.00;76.70;;;;;;6251122;23;20344;-74
2021/08/24 03:43:00;;;;;;;13.90;7.90;;;15.00;74.90;;;;;;6251532;23;20011;-74
2021/08/24 03:45:26;;;;;;;14.98;7.90;;;15.00;73.30;;;;;;6251508;23;20446;-74
2021/08/24 03:47:53;;;;;;;12.05;7.15;;;15.00;73.80;;;;;;6251226;23;20087;-74
2021/08/24 03:50:19;;;;;;;13.25;7.80;;;14.90;73.40;;;;;;6251263;23;20053;-74
2021/08/24 03:52:45;;;;;;;13.50;7.07;;;14.90;73.50;;;;;;6251030;23;20000;-74
2021/08/24 03:55:12;;;;;;;16.55;7.38;;;14.90;73.30;;;;;;6224323;23;20040;-74
2021/08/24 03:57:38;;;;;;;13.02;6.95;;;14.90;74.00;;;;;;6251282;23;20000;-74
2021/08/24 04:00:05;;;;;;;13.35;7.35;;;14.90;73.30;;;;;;6251501;23;20428;-74
2021/08/24 04:02:31;;;;;;;15.07;7.50;;;14.80;73.00;;;;;;6251346;23;20024;-74
2021/08/24 04:05:01;;;;;;;15.55;8.98;;;14.90;75.50;;;;;;6224319;23;20004;-74
2021/08/24 04:07:28;;;;;;;16.52;8.30;;;14.80;75.30;;;;;;6251055;23;20011;-74
2021/08/24 04:09:54;;;;;;;18.98;8.20;;;14.80;74.60;;;;;;6250993;23;20076;-74
2021/08/24 04:12:21;;;;;;;11.23;6.45;;;14.80;74.10;;;;;;6224323;23;20001;-75
2021/08/24 04:14:47;;;;;;;11.32;6.95;;;14.80;72.50;;;;;;6251202;23;20309;-75
2021/08/24 04:17:13;;;;;;;13.60;6.93;;;14.80;72.30;;;;;;6251347;23;20007;-74
2021/08/24 04:19:39;;;;;;;12.80;6.63;;;14.70;71.30;;;;;;6250948;23;20004;-74
2021/08/24 04:22:09;;;;;;;11.75;6.45;;;14.70;71.00;;;;;;6250965;23;20007;-74
2021/08/24 04:24:36;;;;;;;10.23;6.03;;;14.70;70.60;;;;;;6224142;23;20010;-74
2021/08/24 04:27:03;;;;;;;10.60;5.82;;;14.70;70.30;;;;;;6251257;23;20031;-75
2021/08/24 04:29:29;;;;;;;12.57;5.93;;;14.60;70.00;;;;;;6250988;23;20004;-74
2021/08/24 04:31:56;;;;;;;11.60;5.80;;;14.60;69.70;;;;;;6251142;23;20115;-74
2021/08/24 04:34:22;;;;;;;9.40;5.18;;;14.60;69.50;;;;;;6251061;23;19996;-74
2021/08/24 04:36:48;;;;;;;10.30;5.35;;;14.60;69.40;;;;;;6250814;23;20004;-74
2021/08/24 04:39:14;;;;;;;9.02;5.22;;;14.60;69.40;;;;;;6250749;23;20062;-74
2021/08/24 04:41:40;;;;;;;9.00;5.30;;;14.60;69.20;;;;;;6224009;23;20004;-74
2021/08/24 04:44:06;;;;;;;9.48;5.57;;;14.50;69.10;;;;;;6251009;23;20032;-74
2021/08/24 04:46:33;;;;;;;10.20;5.70;;;14.50;69.20;;;;;;6223754;23;20008;-74
2021/08/24 04:48:59;;;;;;;10.48;5.90;;;14.50;69.10;;;;;;6250770;23;20001;-74
2021/08/24 04:51:28;;;;;;;11.52;5.65;;;14.50;69.20;;;;;;6250977;23;20066;-73
2021/08/24 04:53:54;;;;;;;13.85;6.07;;;14.50;69.30;;;;;;6223917;23;20011;-74
2021/08/24 04:56:26;;;;;;;10.10;5.72;;;14.50;69.90;;;;;;6223833;23;20043;-74
2021/08/24 04:58:52;;;;;;;12.07;6.10;;;14.50;69.20;;;;;;6250982;23;19996;-74
2021/08/24 05:01:18;;;;;;;10.70;5.97;;;14.50;69.20;;;;;;6251195;23;19996;-74
2021/08/24 05:03:45;;;;;;;10.60;6.13;;;14.50;69.20;;;;;;6250820;23;19996;-75
2021/08/24 05:06:11;;;;;;;12.32;6.45;;;14.40;69.30;;;;;;6223571;23;20063;-75
2021/08/24 05:08:38;;;;;;;12.82;6.93;;;14.40;69.40;;;;;;6250608;23;20019;-75
2021/08/24 05:11:06;;;;;;;11.27;6.35;;;14.50;69.40;;;;;;6250818;23;20000;-76
2021/08/24 05:13:33;;;;;;;13.05;7.05;;;14.40;69.20;;;;;;6250818;23;20007;-80
2021/08/24 05:16:09;;;;;;;13.55;7.00;;;14.40;69.20;;;;;;6224195;23;20470;-77
2021/08/24 05:18:37;;;;;;;13.73;7.47;;;14.40;69.00;;;;;;6250636;23;19996;-76
2021/08/24 05:21:09;;;;;;;13.88;7.18;;;14.40;70.00;;;;;;6223326;23;20011;-78
2021/08/24 05:23:37;;;;;;;14.02;8.30;;;14.40;69.70;;;;;;6223560;23;20428;-81
2021/08/24 05:26:09;;;;;;;13.57;7.30;;;14.40;69.30;;;;;;6223756;23;20008;-81
2021/08/24 05:28:35;;;;;;;15.90;7.63;;;14.40;69.20;;;;;;6250766;23;20000;-77
2021/08/24 05:31:02;;;;;;;13.32;7.43;;;14.40;69.30;;;;;;6251517;23;20433;-77
2021/08/24 05:33:29;;;;;;;12.13;6.88;;;14.40;69.00;;;;;;6252794;23;20023;-77
2021/08/24 05:35:55;;;;;;;13.15;7.88;;;14.40;69.70;;;;;;6252301;23;20000;-76
2021/08/24 05:38:21;;;;;;;12.73;7.38;;;14.50;71.00;;;;;;6252611;23;20340;-75
2021/08/24 05:40:47;;;;;;;13.65;7.60;;;14.50;70.20;;;;;;6225176;23;20020;-77
2021/08/24 05:43:13;;;;;;;14.57;7.07;;;14.50;70.20;;;;;;6252912;23;20000;-75
2021/08/24 05:45:39;;;;;;;17.27;8.32;;;14.50;70.60;;;;;;6225724;23;20099;-81
2021/08/24 05:48:05;;;;;;;14.25;8.23;;;14.60;71.00;;;;;;6252414;23;20006;-77
2021/08/24 05:50:32;;;;;;;14.60;7.68;;;14.60;70.70;;;;;;6251940;23;20390;-74
2021/08/24 05:53:01;;;;;;;13.65;8.30;;;14.60;70.80;;;;;;6252420;23;19999;-75
2021/08/24 05:55:27;;;;;;;16.17;7.97;;;14.70;70.90;;;;;;6251968;23;20000;-76
2021/08/24 05:57:53;;;;;;;14.23;7.70;;;14.80;71.10;;;;;;6252659;23;20004;-75
2021/08/24 06:00:25;;;;;;;14.80;8.60;;;14.80;70.90;;;;;;6252423;23;20004;-76
2021/08/24 06:02:51;;;;;;;13.23;7.97;;;14.80;71.30;;;;;;6225542;23;20008;-77
2021/08/24 06:05:19;;;;;;;16.67;8.60;;;14.90;71.20;;;;;;6251823;23;20031;-76
2021/08/24 06:07:49;;;;;;;15.98;8.98;;;14.90;71.20;;;;;;6225204;23;20012;-76
2021/08/24 06:10:21;;;;;;;14.38;8.85;;;15.00;72.60;;;;;;6225342;23;20087;-75
2021/08/24 06:12:47;;;;;;;18.77;9.13;;;15.00;71.80;;;;;;6252432;23;20000;-75
2021/08/24 06:15:14;;;;;;;15.77;9.30;;;15.10;72.10;;;;;;6251890;23;20023;-75
2021/08/24 06:17:41;;;;;;;17.50;8.63;;;15.10;72.50;;;;;;6252005;23;20067;-75
2021/08/24 06:20:09;;;;;;;18.70;10.32;;;15.10;72.60;;;;;;6252300;23;20071;-75
2021/08/24 06:22:36;;;;;;;22.98;12.20;;;15.20;74.00;;;;;;6251501;23;20075;-76
2021/08/24 06:25:02;;;;;;;18.10;10.52;;;15.30;75.50;;;;;;6252381;23;20012;-76
2021/08/24 06:27:28;;;;;;;17.00;9.25;;;15.30;74.90;;;;;;6223950;23;20436;-75
2021/08/24 06:29:54;;;;;;;18.73;10.18;;;15.30;74.40;;;;;;6251714;23;20011;-74
2021/08/24 06:32:33;;;;;;;17.48;9.38;;;15.30;74.10;;;;;;6225115;23;20065;-75
2021/08/24 06:35:00;;;;;;;20.67;10.15;;;15.40;74.10;;;;;;6252218;23;20022;-75
2021/08/24 06:37:26;;;;;;;20.38;10.48;;;15.40;74.50;;;;;;6251750;23;20305;-74
2021/08/24 06:39:52;;;;;;;19.70;10.60;;;15.50;74.30;;;;;;6224768;23;20143;-74
2021/08/24 06:42:18;;;;;;;21.67;10.50;;;15.60;73.90;;;;;;6252338;23;20000;-74
2021/08/24 06:44:44;;;;;;;21.90;12.82;;;15.60;73.80;;;;;;6252125;23;20000;-75
2021/08/24 06:47:10;;;;;;;19.95;12.60;;;15.70;75.20;;;;;;6251844;23;20026;-74
2021/08/24 06:49:37;;;;;;;22.33;12.77;;;15.70;74.90;;;;;;6251907;23;20001;-75
2021/08/24 06:52:05;;;;;;;23.85;12.23;;;15.80;75.00;;;;;;6251795;23;20134;-75
2021/08/24 06:54:32;;;;;;;18.23;11.13;;;15.90;75.20;;;;;;6251913;23;20463;-74
2021/08/24 06:56:58;;;;;;;19.13;10.13;;;15.90;74.70;;;;;;6251983;23;20079;-75
2021/08/24 06:59:24;;;;;;;21.63;10.23;;;15.90;74.30;;;;;;6252016;23;20000;-75
2021/08/24 07:01:50;;;;;;;18.73;10.98;;;16.00;74.90;;;;;;6251939;23;20000;-74
2021/08/24 07:04:16;;;;;;;18.63;11.45;;;16.00;76.00;;;;;;6252135;23;20000;-75
2021/08/24 07:06:50;;;;;;;19.00;10.90;;;16.10;76.20;;;;;;6250307;23;20087;-74
2021/08/24 07:09:17;;;;;;;19.77;9.77;;;16.10;75.70;;;;;;6223588;23;20008;-76
2021/08/24 07:11:42;;;;;;;17.55;10.40;;;16.10;75.60;;;;;;6224249;23;20005;-76
2021/08/24 07:14:09;;;;;;;19.98;10.60;;;16.20;76.10;;;;;;6224983;23;20058;-75
2021/08/24 07:16:35;;;;;;;17.08;9.98;;;16.20;75.60;;;;;;6251510;23;20000;-77
2021/08/24 07:19:01;;;;;;;20.45;11.02;;;16.20;75.40;;;;;;6251904;23;20008;-75
2021/08/24 07:21:28;;;;;;;27.80;17.75;;;16.20;75.60;;;;;;6251300;23;20000;-76
2021/08/24 07:23:54;;;;;;;25.33;13.70;;;16.20;75.80;;;;;;6251551;23;19996;-76
2021/08/24 07:26:21;;;;;;;19.95;11.18;;;16.30;76.30;;;;;;6251845;23;19996;-75
2021/08/24 07:28:47;;;;;;;16.83;10.23;;;16.30;75.80;;;;;;6251622;23;20003;-75
2021/08/24 07:31:13;;;;;;;17.75;11.02;;;16.40;75.40;;;;;;6251587;23;20394;-76
2021/08/24 07:33:39;;;;;;;19.92;11.77;;;16.40;75.60;;;;;;6250472;23;20000;-74
2021/08/24 07:36:05;;;;;;;17.35;11.48;;;16.50;76.40;;;;;;6251065;23;19996;-75
2021/08/24 07:38:31;;;;;;;25.20;13.75;;;16.50;76.50;;;;;;6251254;23;20000;-75
2021/08/24 07:40:57;;;;;;;22.48;13.23;;;16.60;77.40;;;;;;6250798;23;20069;-74
2021/08/24 07:43:24;;;;;;;25.65;14.98;;;16.60;76.80;;;;;;6221967;23;20079;-74
2021/08/24 07:45:50;;;;;;;23.52;13.60;;;16.60;76.70;;;;;;6248951;23;20006;-74
2021/08/24 07:48:16;;;;;;;26.40;16.08;;;16.60;76.80;;;;;;6250161;23;20004;-74
2021/08/24 07:50:43;;;;;;;27.08;17.80;;;16.60;76.70;;;;;;6250360;23;20000;-73
2021/08/24 07:53:09;;;;;;;23.95;15.02;;;16.70;77.20;;;;;;6250871;23;20003;-73
2021/08/24 07:55:35;;;;;;;30.08;17.35;;;16.70;76.30;;;;;;6251157;23;20059;-75
2021/08/24 07:58:02;;;;;;;37.35;19.35;;;16.70;76.80;;;;;;6251249;23;20000;-74
2021/08/24 08:00:29;;;;;;;28.23;17.80;;;16.70;76.80;;;;;;6251107;23;20374;-74
2021/08/24 08:02:54;;;;;;;27.52;17.98;;;16.70;77.00;;;;;;6250934;23;20019;-74
2021/08/24 08:05:22;;;;;;;31.02;18.83;;;16.80;76.80;;;;;;6250514;23;20004;-74
2021/08/24 08:07:47;;;;;;;30.70;19.25;;;16.80;76.90;;;;;;6251107;23;20024;-74
2021/08/24 08:10:14;;;;;;;29.55;19.02;;;16.80;77.30;;;;;;6250659;23;20022;-74
2021/08/24 08:12:40;;;;;;;31.33;20.05;;;16.90;77.30;;;;;;6251138;23;19996;-74
2021/08/24 08:15:07;;;;;;;31.55;18.52;;;16.90;77.00;;;;;;6250294;23;20446;-75
2021/08/24 08:17:33;;;;;;;32.03;19.55;;;16.90;76.40;;;;;;6249882;23;20061;-74
2021/08/24 08:19:58;;;;;;;35.90;19.75;;;16.90;76.80;;;;;;6223203;23;20090;-74
2021/08/24 08:22:24;;;;;;;35.55;22.17;;;17.00;76.90;;;;;;6249957;23;20367;-74
2021/08/24 08:24:50;;;;;;;32.33;20.35;;;17.00;77.30;;;;;;6250019;23;20039;-74
2021/08/24 08:27:16;;;;;;;37.80;22.05;;;17.00;77.10;;;;;;6250437;23;20010;-74
2021/08/24 08:29:42;;;;;;;27.45;18.83;;;17.00;76.90;;;;;;6249458;23;20031;-74
2021/08/24 08:32:14;;;;;;;35.78;19.80;;;17.00;76.30;;;;;;6251106;23;20000;-74
2021/08/24 08:34:42;;;;;;;30.98;19.77;;;17.10;76.40;;;;;;6224060;23;20111;-75
2021/08/24 08:37:07;;;;;;;31.60;21.05;;;17.10;76.00;;;;;;6250761;23;20323;-74
2021/08/24 08:39:33;;;;;;;33.63;19.83;;;17.10;76.70;;;;;;6224011;23;20024;-74
2021/08/24 08:42:20;;;;;;;33.50;21.17;;;17.20;76.40;;;;;;6250973;23;20000;-75
2021/08/24 08:44:57;;;;;;;37.92;23.15;;;17.20;76.80;;;;;;6251212;23;20008;-74
2021/08/24 08:47:32;;;;;;;30.77;19.73;;;17.30;76.70;;;;;;6250831;23;20065;-74
2021/08/24 08:50:09;;;;;;;35.33;20.83;;;17.30;76.20;;;;;;6223774;23;20010;-74
2021/08/24 08:52:47;;;;;;;33.78;20.60;;;17.40;76.60;;;;;;6223867;23;20054;-75
2021/08/24 08:55:24;;;;;;;33.20;19.73;;;17.40;76.40;;;;;;6250957;23;19996;-74
2021/08/24 08:58:27;;;;;;;33.63;21.38;;;17.40;76.50;;;;;;6250870;23;20027;-74
2021/08/24 09:00:59;;;;;;;33.95;19.42;;;17.50;76.80;;;;;;6250874;23;20004;-75
2021/08/24 09:03:41;;;;;;;35.30;21.92;;;17.60;76.50;;;;;;6251198;23;20028;-75
2021/08/24 09:06:08;;;;;;;30.75;19.17;;;17.60;76.70;;;;;;6253090;23;20004;-75
2021/08/24 09:08:36;;;;;;;32.95;21.35;;;17.70;76.60;;;;;;6252817;23;20007;-75
2021/08/24 09:11:02;;;;;;;29.75;18.33;;;17.80;77.20;;;;;;6252897;23;20011;-74
2021/08/24 09:13:38;;;;;;;29.83;18.70;;;17.90;77.10;;;;;;6253068;23;20027;-75
2021/08/24 09:16:33;;;;;;;29.60;18.80;;;18.10;77.50;;;;;;6253078;23;19996;-75
2021/08/24 09:19:11;;;;;;;26.90;17.63;;;18.20;76.90;;;;;;6206299;23;20008;-75
2021/08/24 09:21:43;;;;;;;28.13;19.25;;;18.40;76.90;;;;;;6252744;23;20001;-75
2021/08/24 09:24:19;;;;;;;27.43;19.53;;;18.50;76.60;;;;;;6252844;23;20028;-74
2021/08/24 09:27:09;;;;;;;28.40;17.80;;;18.60;76.50;;;;;;6252780;23;20335;-75
2021/08/24 09:29:47;;;;;;;23.02;16.75;;;18.80;77.00;;;;;;6226055;23;20004;-75
2021/08/24 09:32:24;;;;;;;24.10;16.27;;;19.10;78.60;;;;;;6252799;23;20007;-75
2021/08/24 09:35:09;;;;;;;25.70;15.55;;;19.40;78.30;;;;;;6252773;23;20061;-75
2021/08/24 09:37:39;;;;;;;21.67;14.65;;;19.70;78.50;;;;;;6252576;23;20000;-75
2021/08/24 09:40:08;;;;;;;27.30;16.02;;;19.90;78.10;;;;;;6252705;23;20066;-74
2021/08/24 09:42:40;;;;;;;24.17;15.45;;;20.30;76.70;;;;;;6252493;23;20027;-75
2021/08/24 09:45:21;;;;;;;22.75;14.95;;;20.70;77.20;;;;;;6226037;23;20011;-74
2021/08/24 09:47:55;;;;;;;23.33;14.60;;;21.20;78.20;;;;;;6252462;23;20336;-74
2021/08/24 09:50:24;;;;;;;19.63;12.52;;;21.80;77.70;;;;;;6252234;23;20004;-75
2021/08/24 09:52:52;;;;;;;17.90;12.30;;;22.40;77.80;;;;;;6252403;23;20391;-75
2021/08/24 09:55:22;;;;;;;20.92;12.55;;;22.90;78.90;;;;;;6252544;23;19996;-75
2021/08/24 09:57:54;;;;;;;15.75;11.50;;;23.50;77.00;;;;;;6252768;23;19996;-75
2021/08/24 10:00:21;;;;;;;;;;;24.00;76.60;;;;;;6253145;23;20035;-75
2021/08/24 10:02:52;;;;;;;16.30;10.77;;;24.50;76.80;;;;;;6252485;23;20224;-75
2021/08/24 10:05:21;;;;;;;14.88;11.52;;;24.90;78.00;;;;;;6225399;23;20011;-75
2021/08/24 10:07:52;;;;;;;17.65;11.52;;;25.30;77.30;;;;;;6225299;23;20074;-75
2021/08/24 10:10:21;;;;;;;15.18;10.68;;;25.60;71.10;;;;;;6252393;23;20012;-74
2021/08/24 10:12:51;;;;;;;15.77;9.55;;;25.60;73.00;;;;;;6252446;23;19996;-74
2021/08/24 10:15:28;;;;;;;15.15;11.65;;;25.50;73.60;;;;;;6252464;23;20054;-74
2021/08/24 10:18:21;;;;;;;15.10;11.20;;;25.50;72.10;;;;;;6252183;23;20063;-74
2021/08/24 10:20:55;;;;;;;19.63;13.07;;;25.50;70.80;;;;;;6252166;23;20004;-74
2021/08/24 10:23:29;;;;;;;14.85;10.18;;;25.60;66.90;;;;;;6252282;23;20008;-74
2021/08/24 10:26:00;;;;;;;19.02;12.98;;;25.70;68.20;;;;;;6252460;23;20439;-74
2021/08/24 10:28:29;;;;;;;17.67;12.20;;;25.70;68.20;;;;;;6252228;23;20309;-74
2021/08/24 10:30:58;;;;;;;21.35;11.40;;;25.80;65.80;;;;;;6252118;23;20000;-74
2021/08/24 10:33:24;;;;;;;16.58;11.30;;;25.80;66.10;;;;;;6252438;23;20003;-74
2021/08/24 10:36:36;;;;;;;17.35;11.00;;;25.80;67.20;;;;;;6252025;23;19996;-74
2021/08/24 10:39:05;;;;;;;17.65;11.38;;;26.00;67.90;;;;;;6224285;23;20004;-74
2021/08/24 10:41:42;;;;;;;15.02;10.57;;;26.30;64.30;;;;;;6252167;23;20079;-73
2021/08/24 10:44:20;;;;;;;16.80;10.50;;;26.60;67.20;;;;;;6252193;23;20007;-74
2021/08/24 10:46:52;;;;;;;16.83;11.15;;;26.70;66.00;;;;;;6251968;23;20004;-74
2021/08/24 10:49:19;;;;;;;17.88;10.90;;;26.90;63.40;;;;;;6252059;23;20004;-74
2021/08/24 10:52:22;;;;;;;17.73;12.18;;;27.00;64.00;;;;;;6252167;23;19996;-74
2021/08/24 10:54:48;;;;;;;16.45;10.23;;;27.20;62.50;;;;;;6252100;23;19992;-74
2021/08/24 10:57:24;;;;;;;16.33;9.90;;;27.50;63.40;;;;;;6252032;23;20045;-74
2021/08/24 11:00:02;;;;;;;18.52;11.80;;;27.70;63.00;;;;;;6252021;23;20000;-73
2021/08/24 11:02:53;;;;;;;17.85;10.15;;;27.80;59.70;;;;;;6252198;23;20004;-74
2021/08/24 11:05:55;;;;;;;14.63;10.00;;;27.90;61.30;;;;;;6251868;23;20083;-74
2021/08/24 11:08:39;;;;;;;20.25;11.15;;;28.00;62.60;;;;;;6245774;23;20011;-74
2021/08/24 11:11:46;;;;;;;17.95;10.68;;;28.20;62.50;;;;;;6251991;23;20004;-74
2021/08/24 11:14:31;;;;;;;14.07;9.55;;;28.60;59.20;;;;;;6178357;23;20004;-74
2021/08/24 11:17:18;;;;;;;17.23;9.55;;;28.80;60.60;;;;;;6251706;23;19992;-75
2021/08/24 11:20:34;;;;;;;16.13;10.85;;;29.10;62.90;;;;;;6251846;23;20474;-74
2021/08/24 11:23:16;;;;;;;16.08;11.35;;;29.30;60.90;;;;;;6251677;23;20004;-74
2021/08/24 11:25:41;;;;;;;18.35;12.00;;;29.30;59.90;;;;;;6251833;23;20027;-74
2021/08/24 11:28:55;;;;;;;16.25;11.25;;;29.40;57.70;;;;;;6251373;23;20011;-74
2021/08/24 11:31:28;;;;;;;13.95;10.05;;;29.60;57.10;;;;;;6099910;23;20054;-74
2021/08/24 11:34:21;;;;;;;15.50;10.38;;;29.70;59.20;;;;;;6100297;23;20041;-74
2021/08/24 11:36:53;;;;;;;14.48;9.93;;;29.80;57.50;;;;;;6216585;23;20113;-74
2021/08/24 11:39:29;;;;;;;15.45;10.40;;;29.90;58.50;;;;;;6251358;23;20028;-74
2021/08/24 11:42:02;;;;;;;13.95;9.38;;;30.00;58.60;;;;;;6251863;23;20005;-75
2021/08/24 11:44:54;;;;;;;13.65;9.40;;;30.10;56.50;;;;;;6251426;23;20028;-73
2021/08/24 11:47:44;;;;;;;14.15;10.30;;;30.20;56.40;;;;;;6227671;23;20443;-74
2021/08/24 11:50:17;;;;;;;13.90;10.27;;;30.30;58.90;;;;;;6250617;23;20091;-74
2021/08/24 11:52:53;;;;;;;13.70;9.98;;;30.50;54.80;;;;;;6251145;23;20007;-74
2021/08/24 11:55:34;;;;;;;15.75;11.48;;;30.50;56.80;;;;;;6251256;23;20381;-74
2021/08/24 11:58:25;;;;;;;16.73;9.97;;;30.50;52.40;;;;;;6251243;23;20003;-74
2021/08/24 12:01:01;;;;;;;12.45;9.80;;;30.30;55.40;;;;;;6251196;23;20280;-74
2021/08/24 12:03:27;;;;;;;14.30;10.43;;;30.40;55.40;;;;;;6251325;23;20042;-75
2021/08/24 12:06:09;;;;;;;13.82;10.07;;;30.40;53.40;;;;;;6250933;23;20687;-74
2021/08/24 12:08:48;;;;;;;13.35;8.70;;;30.40;51.10;;;;;;6250856;23;20024;-73
2021/08/24 12:11:24;;;;;;;13.68;10.63;;;30.30;52.80;;;;;;6251119;23;20004;-73
2021/08/24 12:13:54;;;;;;;15.02;10.68;;;30.20;52.70;;;;;;6251042;23;20000;-74
2021/08/24 12:16:29;;;;;;;14.93;10.70;;;30.10;51.50;;;;;;6251099;23;20431;-73
2021/08/24 12:19:17;;;;;;;14.40;9.70;;;30.00;52.50;;;;;;6250468;23;20042;-75
2021/08/24 12:22:11;;;;;;;13.35;9.50;;;30.00;52.20;;;;;;6250753;23;20003;-74
2021/08/24 12:24:50;;;;;;;13.98;10.75;;;30.00;50.90;;;;;;6230665;23;20007;-74
2021/08/24 12:27:15;;;;;;;14.52;9.70;;;30.00;51.10;;;;;;6250752;23;20004;-74
2021/08/24 12:29:44;;;;;;;12.38;8.98;;;29.90;48.90;;;;;;6250713;23;20008;-74
2021/08/24 12:32:32;;;;;;;15.60;8.95;;;29.70;48.40;;;;;;6250963;23;20000;-74
2021/08/24 12:35:15;;;;;;;11.23;9.10;;;29.60;49.40;;;;;;6250642;23;19997;-72
2021/08/24 12:37:41;;;;;;;14.27;9.70;;;29.50;49.30;;;;;;6250706;23;20004;-73
2021/08/24 12:40:10;;;;;;;13.23;9.70;;;29.40;49.20;;;;;;6250680;23;20138;-73
2021/08/24 12:42:41;;;;;;;14.10;9.52;;;29.20;49.30;;;;;;6250879;23;20004;-73
2021/08/24 12:45:10;;;;;;;11.63;10.13;;;29.00;50.10;;;;;;6223839;23;20048;-73
2021/08/24 12:48:11;;;;;;;14.45;10.75;;;28.90;50.10;;;;;;6250651;23;20059;-74
2021/08/24 12:50:37;;;;;;;15.20;10.95;;;28.80;51.30;;;;;;6250327;23;20008;-73
2021/08/24 12:53:23;;;;;;;14.88;10.27;;;28.70;50.70;;;;;;6250690;23;20023;-78
2021/08/24 12:55:49;;;;;;;14.05;9.35;;;28.60;49.80;;;;;;6250891;23;20052;-75
2021/08/24 12:58:31;;;;;;;11.05;9.38;;;28.60;49.60;;;;;;6250810;23;20424;-76
2021/08/24 13:01:23;;;;;;;11.15;9.40;;;28.40;49.50;;;;;;6250875;23;20011;-76